createdAt,value
2019-02-02T00:00:29.711Z,38.40
2019-02-02T00:03:07.960Z,37.88
2019-02-02T00:05:43.865Z,43.10
2019-02-02T00:08:19.895Z,41.98
2019-02-02T00:10:54.154Z,38.50
2019-02-02T00:13:27.067Z,36.50
2019-02-02T00:15:58.120Z,37.98
2019-02-02T00:18:33.991Z,33.58
2019-02-02T00:21:05.748Z,35.28
2019-02-02T00:23:44.779Z,39.48
2019-02-02T00:26:20.943Z,36.65
2019-02-02T00:28:51.751Z,39.18
2019-02-02T00:31:22.706Z,43.87
2019-02-02T00:34:03.359Z,39.03
2019-02-02T00:36:34.319Z,43.08
2019-02-02T00:39:19.843Z,40.05
2019-02-02T00:41:55.735Z,45.45
2019-02-02T00:44:35.543Z,55.10
2019-02-02T00:47:05.711Z,41.48
2019-02-02T00:49:37.532Z,43.50
2019-02-02T00:52:08.235Z,40.95
2019-02-02T00:54:48.090Z,38.50
2019-02-02T00:57:17.963Z,47.80
2019-02-02T00:59:49.698Z,52.33
2019-02-02T01:02:31.699Z,41.20
2019-02-02T01:05:02.495Z,34.58
2019-02-02T01:07:34.167Z,47.65
2019-02-02T01:10:24.131Z,39.60
2019-02-02T01:12:56.651Z,36.33
2019-02-02T01:15:26.968Z,37.35
2019-02-02T01:18:12.007Z,34.75
2019-02-02T01:20:42.237Z,46.63
2019-02-02T01:23:14.429Z,50.23
2019-02-02T01:25:46.271Z,46.02
2019-02-02T01:28:18.450Z,47.73
2019-02-02T01:30:54.190Z,43.92
2019-02-02T01:33:23.923Z,50.40
2019-02-02T01:36:04.152Z,44.38
2019-02-02T01:38:41.735Z,48.87
2019-02-02T01:41:13.391Z,46.58
2019-02-02T01:43:45.059Z,40.67
2019-02-02T01:46:25.694Z,49.48
2019-02-02T01:49:09.889Z,44.63
2019-02-02T01:51:42.728Z,38.02
2019-02-02T01:54:15.912Z,40.70
2019-02-02T01:56:46.784Z,41.70
2019-02-02T01:59:24.741Z,47.45
2019-02-02T02:01:58.036Z,45.20
2019-02-02T02:04:33.739Z,47.43
2019-02-02T02:07:16.771Z,44.85
2019-02-02T02:09:53.163Z,41.13
2019-02-02T02:12:30.187Z,45.85
2019-02-02T02:14:59.971Z,47.90
2019-02-02T02:17:31.557Z,38.53
2019-02-02T02:20:03.055Z,42.83
2019-02-02T02:22:41.509Z,39.63
2019-02-02T02:25:33.039Z,51.83
2019-02-02T02:28:09.983Z,50.85
2019-02-02T02:30:41.812Z,41.65
2019-02-02T02:33:11.764Z,46.60
2019-02-02T02:35:41.882Z,46.95
2019-02-02T02:38:17.561Z,44.50
2019-02-02T02:40:56.359Z,40.50
2019-02-02T02:43:26.471Z,48.63
2019-02-02T02:46:08.528Z,57.17
2019-02-02T02:48:42.019Z,39.90
2019-02-02T02:51:12.062Z,52.38
2019-02-02T02:53:41.931Z,52.23
2019-02-02T02:56:24.621Z,50.88
2019-02-02T02:58:54.380Z,47.38
2019-02-02T03:01:36.167Z,52.23
2019-02-02T03:04:07.879Z,49.53
2019-02-02T03:06:37.601Z,57.85
2019-02-02T03:09:09.585Z,47.93
2019-02-02T03:11:46.624Z,41.45
2019-02-02T03:14:16.483Z,53.58
2019-02-02T03:16:46.210Z,54.60
2019-02-02T03:19:16.960Z,48.33
2019-02-02T03:21:47.860Z,54.90
2019-02-02T03:24:17.712Z,49.20
2019-02-02T03:26:48.877Z,51.10
2019-02-02T03:29:25.778Z,47.50
2019-02-02T03:32:06.041Z,55.08
2019-02-02T03:34:36.883Z,52.73
2019-02-02T03:37:07.831Z,42.83
2019-02-02T03:39:39.643Z,62.78
2019-02-02T03:42:09.622Z,50.83
2019-02-02T03:44:40.391Z,42.93
2019-02-02T03:47:22.556Z,60.65
2019-02-02T03:50:06.218Z,49.83
2019-02-02T03:52:41.318Z,57.90
2019-02-02T03:55:14.705Z,49.55
2019-02-02T03:57:48.295Z,59.00
2019-02-02T04:00:24.217Z,46.80
2019-02-02T04:02:54.088Z,43.92
2019-02-02T04:05:29.471Z,51.08
2019-02-02T04:08:06.297Z,49.65
2019-02-02T04:10:39.394Z,60.70
2019-02-02T04:13:38.031Z,54.50
2019-02-02T04:16:08.161Z,42.10
2019-02-02T04:18:52.348Z,52.40
2019-02-02T04:21:47.224Z,47.75
2019-02-02T04:24:24.017Z,44.45
2019-02-02T04:26:55.075Z,52.38
2019-02-02T04:29:25.207Z,54.48
2019-02-02T04:31:59.249Z,53.92
2019-02-02T04:34:31.149Z,48.33
2019-02-02T04:37:01.277Z,50.55
2019-02-02T04:39:39.177Z,53.23
2019-02-02T04:42:36.054Z,48.20
2019-02-02T04:45:24.020Z,43.45
2019-02-02T04:47:57.716Z,45.30
2019-02-02T04:50:50.996Z,51.48
2019-02-02T04:53:25.781Z,60.08
2019-02-02T04:56:12.153Z,47.50
2019-02-02T04:59:29.291Z,51.58
2019-02-02T05:02:10.226Z,43.42
2019-02-02T05:04:43.012Z,46.40
2019-02-02T05:07:22.261Z,45.48
2019-02-02T05:09:54.333Z,59.20
2019-02-02T05:12:29.444Z,46.68
2019-02-02T05:15:01.542Z,56.00
2019-02-02T05:17:45.524Z,50.12
2019-02-02T05:20:20.126Z,51.60
2019-02-02T05:23:21.280Z,47.27
2019-02-02T05:26:01.385Z,57.05
2019-02-02T05:28:44.188Z,50.10
2019-02-02T05:31:16.141Z,49.38
2019-02-02T05:34:08.548Z,51.35
2019-02-02T05:36:44.228Z,49.65
2019-02-02T05:39:22.816Z,49.55
2019-02-02T05:42:09.001Z,43.87
2019-02-02T05:44:40.781Z,45.95
2019-02-02T05:47:14.916Z,41.53
2019-02-02T05:50:11.511Z,57.40
2019-02-02T05:52:59.931Z,48.60
2019-02-02T05:55:41.088Z,60.80
2019-02-02T05:58:39.954Z,50.52
2019-02-02T06:01:20.727Z,51.85
2019-02-02T06:04:00.852Z,50.35
2019-02-02T06:06:43.847Z,54.25
2019-02-02T06:09:26.260Z,45.45
2019-02-02T06:12:13.362Z,55.35
2019-02-02T06:14:46.568Z,50.33
2019-02-02T06:18:07.605Z,40.58
2019-02-02T06:20:38.730Z,57.27
2019-02-02T06:23:08.868Z,52.20
2019-02-02T06:25:49.287Z,49.88
2019-02-02T06:28:22.570Z,63.55
2019-02-02T06:30:52.743Z,60.45
2019-02-02T06:33:37.485Z,52.83
2019-02-02T06:36:22.541Z,42.67
2019-02-02T06:39:08.600Z,53.28
2019-02-02T06:41:38.734Z,50.30
2019-02-02T06:44:08.839Z,46.53
2019-02-02T06:46:52.172Z,64.12
2019-02-02T06:49:23.232Z,45.98
2019-02-02T06:51:54.012Z,47.43
2019-02-02T06:54:24.912Z,54.00
2019-02-02T06:56:54.760Z,58.83
2019-02-02T06:59:24.737Z,51.65
2019-02-02T07:01:54.608Z,53.45
2019-02-02T07:04:27.625Z,55.85
2019-02-02T07:07:02.051Z,43.58
2019-02-02T07:09:51.485Z,52.98
2019-02-02T07:12:21.588Z,48.13
2019-02-02T07:14:53.676Z,49.38
2019-02-02T07:17:23.784Z,53.48
2019-02-02T07:19:54.844Z,51.98
2019-02-02T07:22:42.336Z,52.78
2019-02-02T07:25:20.554Z,48.35
2019-02-02T07:27:50.403Z,58.35
2019-02-02T07:30:49.321Z,47.45
2019-02-02T07:33:40.352Z,46.80
2019-02-02T07:36:14.027Z,49.30
2019-02-02T07:39:26.730Z,50.85
2019-02-02T07:41:58.725Z,50.10
2019-02-02T07:44:34.384Z,54.53
2019-02-02T07:47:25.276Z,54.23
2019-02-02T07:50:01.500Z,54.42
2019-02-02T07:52:37.432Z,44.27
2019-02-02T07:55:12.209Z,46.45
2019-02-02T07:57:42.041Z,45.15
2019-02-02T08:00:39.611Z,45.80
2019-02-02T08:03:00.757Z,43.25
2019-02-02T08:05:30.744Z,45.75
2019-02-02T08:08:00.452Z,48.23
2019-02-02T08:10:30.213Z,53.40
2019-02-02T08:13:00.230Z,44.88
2019-02-02T08:15:34.253Z,49.95
2019-02-02T08:18:10.267Z,62.65
2019-02-02T08:20:40.102Z,52.45
2019-02-02T08:23:10.099Z,61.45
2019-02-02T08:25:40.171Z,48.65
2019-02-02T08:28:10.009Z,42.85
2019-02-02T08:30:51.922Z,52.43
2019-02-02T08:33:16.004Z,47.55
2019-02-02T08:35:46.126Z,47.23
2019-02-02T08:38:24.373Z,44.98
2019-02-02T08:40:56.093Z,47.78
2019-02-02T08:43:26.968Z,51.53
2019-02-02T08:46:10.116Z,51.60
2019-02-02T08:48:41.268Z,55.92
2019-02-02T08:51:12.285Z,47.98
2019-02-02T08:53:46.424Z,45.55
2019-02-02T08:56:17.133Z,51.98
2019-02-02T08:58:54.889Z,48.20
2019-02-02T09:01:25.060Z,48.30
2019-02-02T09:03:56.257Z,56.35
2019-02-02T09:06:38.726Z,45.25
2019-02-02T09:09:15.817Z,53.42
2019-02-02T09:11:48.784Z,44.45
2019-02-02T09:14:25.917Z,48.23
2019-02-02T09:16:57.729Z,44.30
2019-02-02T09:19:28.345Z,44.20
2019-02-02T09:21:59.085Z,44.60
2019-02-02T09:24:29.061Z,45.60
2019-02-02T09:26:58.894Z,50.65
2019-02-02T09:29:28.911Z,45.50
2019-02-02T09:32:04.259Z,48.10
2019-02-02T09:34:37.349Z,46.70
2019-02-02T09:37:08.221Z,47.90
2019-02-02T09:39:38.337Z,46.15
2019-02-02T09:42:19.660Z,46.45
2019-02-02T09:44:49.798Z,42.17
2019-02-02T09:47:21.317Z,37.40
2019-02-02T09:49:51.861Z,50.78
2019-02-02T09:52:22.978Z,44.00
2019-02-02T09:55:00.040Z,44.73
2019-02-02T09:57:36.976Z,41.33
2019-02-02T10:00:14.421Z,46.70
2019-02-02T10:02:50.305Z,49.95
2019-02-02T10:05:23.375Z,39.85
2019-02-02T10:07:54.377Z,53.17
2019-02-02T10:10:29.317Z,42.25
2019-02-02T10:12:59.377Z,44.63
2019-02-02T10:15:30.404Z,52.43
2019-02-02T10:18:01.186Z,44.90
2019-02-02T10:20:32.651Z,47.70
2019-02-02T10:23:07.678Z,34.58
2019-02-02T10:25:37.633Z,42.67
2019-02-02T10:28:16.445Z,41.35
2019-02-02T10:30:50.261Z,41.40
2019-02-02T10:33:20.559Z,43.80
2019-02-02T10:35:51.380Z,38.25
2019-02-02T10:38:22.197Z,39.10
2019-02-02T10:40:52.173Z,48.45
2019-02-02T10:43:22.291Z,37.83
2019-02-02T10:45:53.335Z,39.15
2019-02-02T10:48:23.457Z,44.95
2019-02-02T10:50:53.596Z,42.95
2019-02-02T10:53:24.771Z,38.02
2019-02-02T10:55:56.863Z,40.85
2019-02-02T10:58:26.979Z,50.08
2019-02-02T11:00:56.865Z,35.38
2019-02-02T11:03:27.481Z,41.53
2019-02-02T11:05:59.382Z,40.12
2019-02-02T11:08:29.497Z,40.30
2019-02-02T11:11:00.860Z,41.90
2019-02-02T11:13:30.803Z,49.93
2019-02-02T11:16:00.559Z,45.30
2019-02-02T11:18:30.586Z,39.05
2019-02-02T11:21:04.824Z,40.25
2019-02-02T11:23:34.625Z,44.65
2019-02-02T11:26:08.781Z,50.12
2019-02-02T11:28:38.865Z,40.75
2019-02-02T11:31:14.776Z,41.02
2019-02-02T11:33:44.889Z,39.65
2019-02-02T11:36:14.726Z,52.88
2019-02-02T11:38:44.693Z,39.08
2019-02-02T11:41:23.933Z,33.42
2019-02-02T11:43:53.781Z,47.30
2019-02-02T11:46:23.750Z,40.80
2019-02-02T11:48:53.853Z,35.92
2019-02-02T11:51:24.633Z,34.50
2019-02-02T11:53:54.353Z,43.48
2019-02-02T11:56:39.085Z,41.40
2019-02-02T11:59:09.081Z,42.60
2019-02-02T12:01:39.183Z,39.35
2019-02-02T12:04:09.403Z,44.40
2019-02-02T12:06:39.282Z,35.68
2019-02-02T12:09:10.233Z,39.23
2019-02-02T12:11:40.091Z,41.28
2019-02-02T12:14:10.061Z,35.65
2019-02-02T12:16:39.905Z,39.15
2019-02-02T12:19:09.625Z,40.30
2019-02-02T12:21:40.543Z,40.97
2019-02-02T12:24:14.332Z,42.05
2019-02-02T12:26:44.913Z,37.57
2019-02-02T12:29:14.900Z,35.10
2019-02-02T12:31:44.742Z,37.57
2019-02-02T12:34:14.710Z,43.43
2019-02-02T12:36:44.826Z,37.33
2019-02-02T12:39:15.001Z,42.50
2019-02-02T12:41:45.118Z,40.80
2019-02-02T12:44:15.953Z,38.13
2019-02-02T12:46:45.908Z,40.33
2019-02-02T12:49:16.686Z,36.90
2019-02-02T12:51:46.654Z,35.03
2019-02-02T12:54:16.513Z,38.35
2019-02-02T12:56:46.245Z,41.50
2019-02-02T12:59:16.198Z,40.12
2019-02-02T13:01:46.293Z,32.33
2019-02-02T13:04:24.925Z,35.17
2019-02-02T13:07:01.149Z,38.45
2019-02-02T13:09:31.258Z,41.48
2019-02-02T13:12:02.366Z,37.67
2019-02-02T13:14:32.754Z,36.60
2019-02-02T13:17:02.626Z,38.10
2019-02-02T13:19:32.319Z,42.30
2019-02-02T13:22:08.158Z,31.80
2019-02-02T13:24:38.002Z,33.37
2019-02-02T13:27:07.718Z,36.70
2019-02-02T13:29:37.688Z,37.20
2019-02-02T13:32:08.538Z,35.20
2019-02-02T13:34:39.378Z,35.30
2019-02-02T13:37:09.498Z,41.00
2019-02-02T13:39:39.333Z,39.90
2019-02-02T13:42:10.230Z,38.47
2019-02-02T13:44:40.058Z,33.97
2019-02-02T13:47:10.053Z,33.17
2019-02-02T13:49:52.931Z,33.83
2019-02-02T13:52:23.636Z,34.10
2019-02-02T13:54:53.754Z,39.67
2019-02-02T13:57:23.864Z,31.53
2019-02-02T13:59:53.950Z,35.30
2019-02-02T14:02:26.066Z,33.43
2019-02-02T14:04:56.170Z,32.50
2019-02-02T14:07:26.062Z,32.50
2019-02-02T14:09:58.794Z,27.80
2019-02-02T14:12:28.778Z,29.93
2019-02-02T14:14:58.870Z,32.80
2019-02-02T14:17:32.358Z,29.47
2019-02-02T14:20:14.759Z,35.63
2019-02-02T14:22:49.542Z,32.03
2019-02-02T14:25:19.550Z,30.57
2019-02-02T14:27:49.314Z,31.27
2019-02-02T14:30:26.574Z,28.53
2019-02-02T14:33:13.834Z,27.80
2019-02-02T14:35:39.066Z,30.33
2019-02-02T14:38:09.178Z,28.83
2019-02-02T14:40:39.290Z,31.20
2019-02-02T14:43:11.375Z,26.77
2019-02-02T14:45:41.214Z,32.90
2019-02-02T14:48:12.095Z,27.10
2019-02-02T14:50:45.397Z,29.50
2019-02-02T14:53:16.678Z,24.93
2019-02-02T14:55:46.960Z,25.17
2019-02-02T14:58:18.122Z,23.20
2019-02-02T15:00:48.004Z,33.23
2019-02-02T15:03:25.467Z,24.50
2019-02-02T15:05:49.654Z,21.60
2019-02-02T15:08:20.575Z,27.50
2019-02-02T15:10:50.484Z,26.00
2019-02-02T15:13:20.615Z,22.67
2019-02-02T15:15:56.554Z,24.90
2019-02-02T15:18:29.665Z,19.87
2019-02-02T15:21:01.894Z,25.80
2019-02-02T15:23:32.626Z,24.63
2019-02-02T15:26:15.878Z,24.30
2019-02-02T15:28:48.975Z,23.40
2019-02-02T15:31:20.992Z,25.93
2019-02-02T15:33:51.732Z,22.10
2019-02-02T15:36:23.766Z,26.73
2019-02-02T15:38:54.882Z,22.40
2019-02-02T15:41:26.071Z,26.03
2019-02-02T15:44:01.976Z,26.17
2019-02-02T15:46:32.131Z,28.95
2019-02-02T15:49:03.171Z,18.85
2019-02-02T15:51:40.154Z,28.77
2019-02-02T15:54:09.790Z,22.73
2019-02-02T15:56:39.698Z,30.20
2019-02-02T15:59:19.146Z,25.70
2019-02-02T16:01:51.203Z,32.83
2019-02-02T16:04:23.463Z,23.47
2019-02-02T16:06:53.572Z,32.35
2019-02-02T16:09:23.712Z,32.35
2019-02-02T16:11:53.820Z,35.80
2019-02-02T16:14:29.699Z,31.20
2019-02-02T16:17:03.015Z,36.00
2019-02-02T16:19:34.991Z,30.57
2019-02-02T16:22:06.563Z,31.30
2019-02-02T16:24:38.667Z,37.98
2019-02-02T16:27:10.671Z,35.25
2019-02-02T16:29:41.591Z,31.85
2019-02-02T16:32:13.939Z,37.13
2019-02-02T16:34:44.099Z,43.15
2019-02-02T16:37:26.055Z,47.17
2019-02-02T16:39:57.836Z,30.37
2019-02-02T16:42:27.803Z,34.65
2019-02-02T16:45:05.395Z,28.10
2019-02-02T16:47:36.426Z,30.90
2019-02-02T16:50:18.745Z,34.55
2019-02-02T16:52:48.936Z,32.83
2019-02-02T16:55:19.890Z,34.67
2019-02-02T16:57:50.063Z,34.83
2019-02-02T17:00:31.235Z,29.63
2019-02-02T17:03:19.531Z,36.05
2019-02-02T17:05:49.643Z,31.25
2019-02-02T17:08:19.751Z,29.95
2019-02-02T17:10:55.763Z,38.15
2019-02-02T17:13:29.863Z,30.48
2019-02-02T17:16:00.913Z,37.63
2019-02-02T17:18:37.687Z,41.25
2019-02-02T17:21:09.541Z,36.20
2019-02-02T17:23:39.399Z,40.45
2019-02-02T17:26:09.368Z,42.98
2019-02-02T17:28:39.231Z,39.65
2019-02-02T17:31:11.426Z,38.28
2019-02-02T17:33:40.363Z,52.50
2019-02-02T17:36:31.259Z,36.05
2019-02-02T17:39:09.475Z,38.15
2019-02-02T17:41:39.427Z,36.75
2019-02-02T17:44:13.605Z,33.50
2019-02-02T17:46:45.636Z,36.25
2019-02-02T17:49:15.801Z,38.75
2019-02-02T17:51:55.893Z,35.70
2019-02-02T17:54:28.355Z,42.75
2019-02-02T17:57:13.078Z,38.83
2019-02-02T17:59:45.059Z,34.35
2019-02-02T18:02:21.675Z,32.67
2019-02-02T18:04:55.189Z,32.65
2019-02-02T18:07:32.071Z,37.98
2019-02-02T18:10:29.519Z,36.05
2019-02-02T18:13:01.505Z,31.77
2019-02-02T18:15:36.932Z,38.17
2019-02-02T18:18:07.844Z,35.88
2019-02-02T18:20:39.811Z,36.38
2019-02-02T18:23:19.976Z,40.50
2019-02-02T18:25:51.123Z,49.95
2019-02-02T18:28:21.519Z,45.08
2019-02-02T18:30:57.407Z,41.20
2019-02-02T18:33:29.471Z,32.42
2019-02-02T18:36:03.996Z,39.65
2019-02-02T18:38:40.271Z,39.40
2019-02-02T18:41:11.296Z,41.40
2019-02-02T18:43:41.429Z,35.52
2019-02-02T18:46:19.317Z,33.38
2019-02-02T18:48:54.917Z,42.17
2019-02-02T18:51:24.839Z,36.88
2019-02-02T18:53:54.843Z,36.68
2019-02-02T18:56:26.947Z,33.73
2019-02-02T18:58:59.791Z,45.52
2019-02-02T19:01:30.765Z,41.37
2019-02-02T19:04:12.855Z,42.03
2019-02-02T19:06:52.016Z,39.00
2019-02-02T19:09:38.039Z,34.53
2019-02-02T19:12:08.171Z,40.98
2019-02-02T19:14:44.639Z,42.10
2019-02-02T19:17:35.248Z,35.70
2019-02-02T19:20:10.825Z,48.13
2019-02-02T19:22:40.963Z,58.63
2019-02-02T19:25:18.143Z,46.40
2019-02-02T19:27:59.170Z,41.85
2019-02-02T19:30:38.312Z,46.35
2019-02-02T19:33:20.762Z,45.15
2019-02-02T19:35:50.608Z,42.75
2019-02-02T19:38:20.359Z,46.88
2019-02-02T19:40:59.051Z,44.73
2019-02-02T19:43:37.117Z,40.43
2019-02-02T19:46:09.151Z,33.75
2019-02-02T19:48:39.032Z,44.83
2019-02-02T19:51:14.020Z,46.77
2019-02-02T19:53:43.895Z,42.80
2019-02-02T19:56:18.598Z,44.13
2019-02-02T19:59:03.456Z,40.20
2019-02-02T20:01:36.420Z,44.00
2019-02-02T20:04:06.544Z,47.00
2019-02-02T20:06:38.720Z,37.90
2019-02-02T20:09:10.904Z,37.25
2019-02-02T20:11:41.082Z,34.80
2019-02-02T20:14:14.255Z,41.37
2019-02-02T20:16:51.203Z,39.65
2019-02-02T20:19:44.528Z,39.48
2019-02-02T20:22:15.663Z,40.33
2019-02-02T20:24:54.728Z,46.95
2019-02-02T20:27:26.844Z,39.30
2019-02-02T20:30:01.132Z,42.60
2019-02-02T20:32:39.370Z,42.75
2019-02-02T20:35:21.225Z,40.75
2019-02-02T20:38:09.232Z,44.38
2019-02-02T20:40:40.101Z,41.50
2019-02-02T20:43:13.677Z,42.45
2019-02-02T20:45:44.423Z,45.58
2019-02-02T20:48:19.424Z,53.90
2019-02-02T20:51:10.724Z,58.35
2019-02-02T20:53:58.945Z,61.35
2019-02-02T20:56:36.728Z,45.10
2019-02-02T20:59:07.692Z,43.87
2019-02-02T21:01:43.647Z,37.48
2019-02-02T21:04:15.664Z,53.40
2019-02-02T21:06:57.539Z,46.15
2019-02-02T21:09:37.508Z,47.40
2019-02-02T21:12:07.322Z,54.67
2019-02-02T21:14:37.339Z,55.83
2019-02-02T21:17:38.344Z,60.60
2019-02-02T21:20:23.780Z,53.63
2019-02-02T21:22:56.268Z,54.23
2019-02-02T21:25:39.048Z,58.58
2019-02-02T21:28:15.779Z,56.95
2019-02-02T21:30:46.675Z,48.40
2019-02-02T21:33:29.108Z,56.10
2019-02-02T21:36:04.103Z,41.60
2019-02-02T21:38:39.973Z,53.50
2019-02-02T21:41:12.664Z,56.92
2019-02-02T21:43:50.100Z,57.25
2019-02-02T21:46:31.535Z,53.55
2019-02-02T21:49:04.740Z,53.50
2019-02-02T21:51:40.700Z,53.48
2019-02-02T21:54:10.600Z,49.15
2019-02-02T21:56:58.063Z,50.28
2019-02-02T21:59:39.184Z,51.48
2019-02-02T22:02:09.944Z,38.00
2019-02-02T22:04:58.284Z,50.65
2019-02-02T22:07:28.276Z,39.98
2019-02-02T22:10:04.904Z,44.00
2019-02-02T22:12:38.984Z,49.65
2019-02-02T22:15:23.648Z,50.75
2019-02-02T22:18:09.741Z,49.77
2019-02-02T22:20:39.718Z,52.20
2019-02-02T22:23:15.828Z,56.10
2019-02-02T22:25:56.741Z,58.68
2019-02-02T22:28:34.756Z,51.25
2019-02-02T22:31:05.494Z,55.98
2019-02-02T22:33:39.400Z,40.45
2019-02-02T22:36:09.391Z,45.20
2019-02-02T22:38:39.998Z,53.23
2019-02-02T22:41:19.920Z,55.33
2019-02-02T22:43:58.989Z,49.15
2019-02-02T22:46:31.671Z,49.38
2019-02-02T22:49:15.080Z,48.17
2019-02-02T22:51:45.172Z,50.65
2019-02-02T22:54:16.225Z,52.13
2019-02-02T22:56:48.598Z,47.43
2019-02-02T22:59:24.724Z,44.73
2019-02-02T23:02:04.472Z,48.15
2019-02-02T23:04:40.200Z,57.88
2019-02-02T23:07:30.636Z,59.20
2019-02-02T23:10:28.332Z,61.45
2019-02-02T23:13:26.853Z,55.65
2019-02-02T23:16:07.458Z,57.03
2019-02-02T23:18:39.264Z,51.58
2019-02-02T23:21:20.714Z,49.33
2019-02-02T23:24:06.164Z,43.90
2019-02-02T23:26:45.284Z,52.53
2019-02-02T23:29:21.440Z,48.50
2019-02-02T23:32:09.871Z,52.90
2019-02-02T23:35:02.548Z,47.80
2019-02-02T23:37:36.100Z,66.65
2019-02-02T23:40:18.193Z,46.33
2019-02-02T23:42:49.407Z,47.65
2019-02-02T23:45:19.512Z,44.98
2019-02-02T23:47:51.014Z,48.15
2019-02-02T23:50:22.865Z,49.65
2019-02-02T23:52:57.920Z,44.20
2019-02-02T23:55:39.920Z,35.25
2019-02-02T23:58:15.901Z,38.85
